Date,TemperatureHighF,TemperatureAvgF,TemperatureLowF,DewpointHighF,DewpointAvgF,DewpointLowF,HumidityHigh,HumidityAvg,HumidityLow,PressureMaxIn,PressureMinIn,WindSpeedMaxMPH,WindSpeedAvgMPH,GustSpeedMaxMPH,PrecipitationSumIn
2013-11-1,63,53,46,50,46,42,96,78,51,29.86,29.64,17,4,17,0.00
2013-11-2,55,47,38,46,41,35,91,79,57,30.20,29.85,19,4,19,0.00
2013-11-3,59,45,32,41,36,31,97,72,39,30.34,30.19,11,1,11,0.00
2013-11-4,59,50,44,48,42,37,90,74,62,30.29,30.20,17,2,17,0.01
2013-11-5,66,57,50,53,50,47,95,77,58,30.32,30.08,14,2,14,0.04
2013-11-6,61,51,39,55,48,36,94,88,73,30.25,29.97,22,6,22,0.33
2013-11-7,54,41,31,39,35,30,96,81,54,30.41,30.25,12,2,12,0.01
2013-11-8,58,44,29,38,33,28,97,69,38,30.41,30.16,9,1,14,0.00
2013-11-9,66,52,41,46,41,35,88,67,42,30.22,30.10,19,4,19,0.00
2013-11-10,55,45,35,44,35,31,87,69,44,30.42,30.22,15,2,15,0.00
2013-11-11,63,47,36,49,37,32,91,70,42,30.43,30.14,24,4,24,0.02
2013-11-12,36,30,21,33,23,18,91,76,55,30.74,30.43,22,5,22,0.00
2013-11-13,44,30,18,24,20,15,93,69,33,30.74,30.39,15,3,15,0.00
2013-11-14,54,41,30,29,26,22,77,56,32,30.39,30.12,23,6,23,0.00
2013-11-15,54,47,41,46,35,27,89,64,47,30.13,30.00,12,3,12,0.00
2013-11-16,66,58,48,63,54,45,94,89,77,30.00,29.71,21,6,27,0.06
2013-11-17,76,65,48,68,53,28,93,69,26,29.97,29.44,37,10,37,0.23
2013-11-18,55,47,34,42,35,28,90,65,38,30.31,29.97,23,4,23,0.00
2013-11-19,46,38,32,31,29,27,82,69,50,30.38,30.25,9,2,9,0.00
2013-11-20,53,43,31,38,33,28,88,71,55,30.26,30.10,14,2,14,0.00
2013-11-21,52,50,47,51,46,38,97,86,57,30.20,30.11,14,2,14,0.73
2013-11-22,52,43,36,51,41,32,97,92,85,30.50,30.18,21,8,21,0.01
2013-11-23,36,30,20,33,22,13,91,74,51,30.73,30.49,26,9,26,0.00
2013-11-24,30,23,16,17,13,8,82,66,42,30.80,30.50,11,2,11,0.00
2013-11-25,34,31,26,27,21,16,78,67,55,30.51,30.21,13,2,13,0.00
2013-11-26,41,33,24,31,25,12,89,72,57,30.24,30.05,29,8,29,0.00
2013-11-27,28,22,18,15,11,6,85,63,46,30.39,30.22,25,8,25,0.00
2013-11-28,46,30,19,26,20,13,85,67,43,30.52,30.31,22,4,22,0.00
2013-11-29,48,35,25,29,25,20,86,68,47,30.63,30.43,7,2,11,0.00
2013-11-30,55,42,32,36,32,26,79,68,46,30.43,30.15,14,4,18,0.00